Pagrindinis puslapis
METAR-TAF:

METAR-TAF

Oro uostai :

Halmstadas, Švedija

platuma: 56-41N, ilguma: 012-50E, Aukštis: 30 m

Dabartinis oras

Ataskaita buvo paskelbta 14 minutes, ne 16:50 UTC
Vėjas 10 kt iš Pietų/Pietryčių, svyruoja nuo Rytų ir Pietų
Temperatūra 17°C
Drėgmė 55%
Slėgis 1008 hPa
Matomumas 10 km arba daugiau
nėra debesų žemiau 1500 m ir nėra kamuolinių lietaus debesų

METAR: ESMT 231650Z 15010KT 100V190 CAVOK 17/08 Q1008

Laikas: 19:04 (17:04 UTC)

Prognozė

Ataskaita buvo paskelbta 2 valandos ir 52 minutes, ne 14:12 UTC
Prognozė galioja nuo 23 metu 15 UTC su 23 metu 19 UTC
Vėjas 8 kt iš Pietų
Matomumas 10 km arba daugiau
Mažai debesys ne aukštis 4000 ft
Tapsmas
nuo 23 metu 16 UTC su 23 metu 19 UTC
Vėjas 12 kt iš Rytų/Pietryčių

TAF: ESMT 231412Z 2315/2319 19008KT 9999 FEW040 BECMG 2316/2319 12012KT

Orai ataskaitas ir orų prognozės (METAR, TAF).

turimą stotys yra geltonos ir raudonos taškus žemėlapyje.

Perkelti pele per norėdami pamatyti stoties vardą.

Tada spustelėkite, norėdami matyti oro stebėjimo ir prognozės.

Norėdami pakeisti žemėlapį: spustelėkite ant žalios mygtukų su juodo kryžiaus žemyn,; žalią mygtuką su brūkšneliu, jei norite nutolinti; arba žalių rodyklių gretimoms žemėlapius.


METAR-TAF: